createdAt,value
2022-07-29T00:01:09.091Z,99.90
2022-07-29T00:03:47.663Z,99.90
2022-07-29T00:06:15.736Z,99.90
2022-07-29T00:08:44.917Z,99.90
2022-07-29T00:11:12.736Z,99.90
2022-07-29T00:13:40.586Z,99.90
2022-07-29T00:16:08.478Z,99.90
2022-07-29T00:18:36.328Z,99.90
2022-07-29T00:21:04.186Z,99.90
2022-07-29T00:23:36.457Z,99.90
2022-07-29T00:26:06.030Z,99.90
2022-07-29T00:28:33.948Z,99.90
2022-07-29T00:31:01.867Z,99.90
2022-07-29T00:33:30.358Z,99.90
2022-07-29T00:35:57.224Z,99.90
2022-07-29T00:38:25.221Z,99.90
2022-07-29T00:40:53.436Z,99.90
2022-07-29T00:43:22.710Z,99.90
2022-07-29T00:45:50.599Z,99.90
2022-07-29T00:48:18.491Z,99.90
2022-07-29T00:50:46.376Z,99.90
2022-07-29T00:53:14.285Z,99.90
2022-07-29T00:55:42.204Z,99.90
2022-07-29T00:58:10.111Z,99.90
2022-07-29T01:00:41.658Z,99.90
2022-07-29T01:03:09.657Z,99.90
2022-07-29T01:05:49.785Z,99.90
2022-07-29T01:08:19.572Z,99.90
2022-07-29T01:10:47.512Z,99.90
2022-07-29T01:13:15.481Z,99.90
2022-07-29T01:15:48.997Z,99.90
2022-07-29T01:18:22.207Z,99.90
2022-07-29T01:21:20.036Z,99.90
2022-07-29T01:24:00.480Z,99.90
2022-07-29T01:26:37.327Z,99.90
2022-07-29T01:29:08.720Z,99.90
2022-07-29T01:31:58.497Z,99.90
2022-07-29T01:34:33.320Z,99.90
2022-07-29T01:37:06.220Z,99.90
2022-07-29T01:39:35.971Z,99.90
2022-07-29T01:42:08.009Z,99.90
2022-07-29T01:44:40.063Z,99.90
2022-07-29T01:47:12.670Z,99.90
2022-07-29T01:49:43.082Z,99.90
2022-07-29T01:52:13.105Z,99.90
2022-07-29T01:54:44.035Z,99.90
2022-07-29T01:57:16.342Z,99.90
2022-07-29T01:59:45.542Z,99.90
2022-07-29T02:02:13.500Z,99.90
2022-07-29T02:04:41.515Z,99.90
2022-07-29T02:07:09.636Z,99.90
2022-07-29T02:09:38.841Z,99.90
2022-07-29T02:12:07.200Z,99.90
2022-07-29T02:14:36.292Z,99.90
2022-07-29T02:17:05.512Z,99.90
2022-07-29T02:19:34.181Z,99.90
2022-07-29T02:22:02.599Z,99.90
2022-07-29T02:24:30.613Z,99.90
2022-07-29T02:26:58.525Z,99.90
2022-07-29T02:29:29.104Z,99.90
2022-07-29T02:31:56.970Z,99.90
2022-07-29T02:34:26.286Z,99.90
2022-07-29T02:36:54.137Z,99.90
2022-07-29T02:39:22.011Z,99.90
2022-07-29T02:41:50.714Z,99.90
2022-07-29T02:44:20.198Z,99.90
2022-07-29T02:46:50.538Z,99.90
2022-07-29T02:49:21.092Z,99.90
2022-07-29T02:51:53.487Z,99.90
2022-07-29T02:54:24.958Z,99.90
2022-07-29T02:56:54.673Z,99.90
2022-07-29T02:59:24.223Z,99.90
2022-07-29T03:01:52.131Z,99.90
2022-07-29T03:04:20.346Z,99.90
2022-07-29T03:06:49.810Z,99.90
2022-07-29T03:09:17.855Z,99.90
2022-07-29T03:11:50.600Z,99.90
2022-07-29T03:14:20.377Z,99.90
2022-07-29T03:16:48.752Z,99.90
2022-07-29T03:19:17.192Z,99.90
2022-07-29T03:21:45.033Z,99.90
2022-07-29T03:24:25.942Z,99.90
2022-07-29T03:26:53.777Z,99.90
2022-07-29T03:29:21.631Z,99.90
2022-07-29T03:31:49.514Z,99.90
2022-07-29T03:34:17.914Z,99.90
2022-07-29T03:36:45.989Z,99.90
2022-07-29T03:39:16.919Z,99.90
2022-07-29T03:41:44.745Z,99.90
2022-07-29T03:44:12.806Z,99.90
2022-07-29T03:46:40.796Z,99.90
2022-07-29T03:49:09.810Z,99.90
2022-07-29T03:51:37.716Z,99.90
2022-07-29T03:54:09.948Z,99.90
2022-07-29T03:56:40.387Z,99.90
2022-07-29T03:59:08.235Z,99.90
2022-07-29T04:01:36.363Z,99.90
2022-07-29T04:04:04.831Z,99.90
2022-07-29T04:06:40.196Z,99.90
2022-07-29T04:09:09.739Z,99.90
2022-07-29T04:12:02.408Z,99.90
2022-07-29T04:14:27.758Z,99.90
2022-07-29T04:16:56.252Z,99.90
2022-07-29T04:19:24.099Z,99.90
2022-07-29T04:21:52.324Z,99.90
2022-07-29T04:24:20.515Z,99.90
2022-07-29T04:26:50.299Z,99.90
2022-07-29T04:29:18.135Z,99.90
2022-07-29T04:31:46.061Z,99.90
2022-07-29T04:34:14.637Z,99.90
2022-07-29T04:36:42.681Z,99.90
2022-07-29T04:39:11.054Z,99.90
2022-07-29T04:41:39.052Z,99.90
2022-07-29T04:44:08.736Z,99.90
2022-07-29T04:46:37.150Z,99.90
2022-07-29T04:49:05.405Z,99.90
2022-07-29T04:51:33.276Z,99.90
2022-07-29T04:54:01.175Z,99.90
2022-07-29T04:56:29.073Z,99.90
2022-07-29T04:58:56.945Z,99.90
2022-07-29T05:01:26.235Z,99.90
2022-07-29T05:03:59.838Z,99.90
2022-07-29T05:06:28.231Z,99.90
2022-07-29T05:08:56.043Z,99.90
2022-07-29T05:11:26.129Z,99.90
2022-07-29T05:13:57.874Z,99.90
2022-07-29T05:16:27.176Z,99.90
2022-07-29T05:18:55.047Z,99.90
2022-07-29T05:21:22.904Z,99.90
2022-07-29T05:23:50.792Z,99.90
2022-07-29T05:26:18.641Z,99.90
2022-07-29T05:28:46.487Z,99.90
2022-07-29T05:31:15.533Z,99.90
2022-07-29T05:33:44.836Z,99.90
2022-07-29T05:36:12.787Z,99.90
2022-07-29T05:38:40.651Z,99.90
2022-07-29T05:41:08.637Z,99.90
2022-07-29T05:43:36.530Z,99.90
2022-07-29T05:46:04.453Z,99.90
2022-07-29T05:48:32.381Z,99.90
2022-07-29T05:51:01.664Z,99.90
2022-07-29T05:53:29.566Z,99.90
2022-07-29T05:55:57.523Z,99.90
2022-07-29T05:58:25.474Z,99.90
2022-07-29T06:00:53.774Z,99.90
2022-07-29T06:03:21.626Z,99.90
2022-07-29T06:05:49.507Z,99.90
2022-07-29T06:08:18.702Z,99.90
2022-07-29T06:10:47.224Z,99.90
2022-07-29T06:13:16.859Z,99.90
2022-07-29T06:15:44.856Z,99.90
2022-07-29T06:18:14.582Z,99.90
2022-07-29T06:20:42.564Z,99.90
2022-07-29T06:23:10.959Z,99.90
2022-07-29T06:25:41.561Z,99.90
2022-07-29T06:28:09.402Z,99.90
2022-07-29T06:30:37.328Z,99.90
2022-07-29T06:33:05.516Z,99.90
2022-07-29T06:35:38.750Z,99.90
2022-07-29T06:38:31.648Z,99.90
2022-07-29T06:41:05.019Z,99.90
2022-07-29T06:43:34.944Z,99.90
2022-07-29T06:46:03.492Z,99.90
2022-07-29T06:48:31.379Z,99.90
2022-07-29T06:50:59.328Z,99.90
2022-07-29T06:53:27.235Z,99.90
2022-07-29T06:55:55.065Z,99.90
2022-07-29T06:58:24.575Z,99.90
2022-07-29T07:00:52.571Z,99.90
2022-07-29T07:03:20.610Z,99.90
2022-07-29T07:05:48.587Z,99.90
2022-07-29T07:08:17.155Z,99.90
2022-07-29T07:10:45.072Z,99.90
2022-07-29T07:13:13.282Z,99.90
2022-07-29T07:15:42.607Z,99.90
2022-07-29T07:18:10.499Z,99.90
2022-07-29T07:20:38.446Z,99.90
2022-07-29T07:23:06.562Z,99.90
2022-07-29T07:25:34.567Z,99.90
2022-07-29T07:28:02.412Z,99.90
2022-07-29T07:30:30.336Z,99.90
2022-07-29T07:32:59.561Z,99.90
2022-07-29T07:35:28.650Z,99.90
2022-07-29T07:37:56.717Z,99.90
2022-07-29T07:40:25.844Z,99.90
2022-07-29T07:42:53.819Z,99.90
2022-07-29T07:45:21.731Z,99.90
2022-07-29T07:47:49.596Z,99.90
2022-07-29T07:50:19.748Z,99.90
2022-07-29T07:52:51.916Z,99.90
2022-07-29T07:55:19.944Z,99.90
2022-07-29T07:57:47.844Z,99.90
2022-07-29T08:00:16.545Z,99.90
2022-07-29T08:02:46.081Z,99.90
2022-07-29T08:05:17.602Z,99.90
2022-07-29T08:07:47.574Z,99.90
2022-07-29T08:10:16.003Z,99.90
2022-07-29T08:12:45.661Z,99.90
2022-07-29T08:15:13.623Z,99.90
2022-07-29T08:17:42.504Z,99.90
2022-07-29T08:20:11.873Z,99.90
2022-07-29T08:22:39.816Z,99.90
2022-07-29T08:25:09.623Z,99.90
2022-07-29T08:27:44.772Z,99.90
2022-07-29T08:30:13.454Z,99.90
2022-07-29T08:32:53.803Z,99.90
2022-07-29T08:35:22.407Z,99.90
2022-07-29T08:37:50.401Z,99.90
2022-07-29T08:40:20.062Z,99.90
2022-07-29T08:42:58.718Z,99.90
2022-07-29T08:45:26.647Z,99.90
2022-07-29T08:47:54.650Z,99.90
2022-07-29T08:50:22.614Z,99.90
2022-07-29T08:52:50.508Z,99.90
2022-07-29T08:55:19.898Z,99.90
2022-07-29T08:57:54.121Z,99.90
2022-07-29T09:00:25.200Z,99.90
2022-07-29T09:02:56.532Z,99.90
2022-07-29T09:05:24.546Z,99.90
2022-07-29T09:07:52.388Z,99.90
2022-07-29T09:10:21.852Z,99.90
2022-07-29T09:12:49.782Z,99.90
2022-07-29T09:15:17.706Z,99.90
2022-07-29T09:17:46.659Z,99.90
2022-07-29T09:20:16.671Z,99.90
2022-07-29T09:22:44.555Z,99.90
2022-07-29T09:25:13.989Z,99.90
2022-07-29T09:27:43.293Z,99.90
2022-07-29T09:30:12.481Z,99.90
2022-07-29T09:32:59.167Z,99.90
2022-07-29T09:35:27.579Z,99.90
2022-07-29T09:37:55.765Z,99.90
2022-07-29T09:40:25.386Z,99.90
2022-07-29T09:42:56.526Z,99.90
2022-07-29T09:45:31.407Z,99.90
2022-07-29T09:48:01.333Z,99.90
2022-07-29T09:50:39.296Z,99.90
2022-07-29T09:53:07.146Z,99.90
2022-07-29T09:55:35.067Z,99.90
2022-07-29T09:58:18.567Z,99.90
2022-07-29T10:00:46.989Z,99.90
2022-07-29T10:03:15.186Z,99.90
2022-07-29T10:05:43.134Z,99.90
2022-07-29T10:08:11.074Z,99.90
2022-07-29T10:10:39.698Z,99.90
2022-07-29T10:13:12.205Z,99.90
2022-07-29T10:15:46.721Z,99.90
2022-07-29T10:18:18.135Z,99.90
2022-07-29T10:20:46.287Z,99.90
2022-07-29T10:23:14.431Z,99.90
2022-07-29T10:25:46.337Z,99.90
2022-07-29T10:28:16.788Z,99.90
2022-07-29T10:30:46.475Z,99.90
2022-07-29T10:33:21.380Z,99.90
2022-07-29T10:36:07.020Z,99.90
2022-07-29T10:38:45.650Z,99.90
2022-07-29T10:41:32.279Z,99.90
2022-07-29T10:44:06.032Z,99.90
2022-07-29T10:46:38.504Z,99.90
2022-07-29T10:49:11.408Z,99.90
2022-07-29T10:52:02.669Z,99.90
2022-07-29T10:54:56.328Z,99.90
2022-07-29T10:57:53.357Z,99.90
2022-07-29T11:00:32.975Z,99.90
2022-07-29T11:03:04.844Z,99.90
2022-07-29T11:05:55.066Z,99.90
2022-07-29T11:08:26.471Z,99.90
2022-07-29T11:11:39.546Z,99.90
2022-07-29T11:14:12.276Z,99.90
2022-07-29T11:17:06.460Z,99.90
2022-07-29T11:19:37.262Z,99.90
2022-07-29T11:22:10.161Z,99.90
2022-07-29T11:24:38.673Z,99.90
2022-07-29T11:27:19.709Z,99.90
2022-07-29T11:29:55.635Z,98.50
2022-07-29T11:32:24.871Z,93.80
2022-07-29T11:35:17.050Z,99.90
2022-07-29T11:37:52.594Z,99.90
2022-07-29T11:40:25.696Z,99.90
2022-07-29T11:42:53.876Z,97.90
2022-07-29T11:45:44.187Z,92.50
2022-07-29T11:48:29.716Z,92.20
2022-07-29T11:51:13.285Z,99.90
2022-07-29T11:53:41.393Z,99.90
2022-07-29T11:56:11.277Z,99.90
2022-07-29T11:58:44.570Z,99.90
2022-07-29T12:01:15.555Z,99.90
2022-07-29T12:03:43.701Z,99.90
2022-07-29T12:06:18.329Z,99.90
2022-07-29T12:08:48.964Z,99.90
2022-07-29T12:11:21.622Z,99.90
2022-07-29T12:13:50.226Z,99.90
2022-07-29T12:16:25.653Z,99.90
2022-07-29T12:18:58.723Z,99.90
2022-07-29T12:21:29.309Z,99.90
2022-07-29T12:24:01.792Z,99.90
2022-07-29T12:26:34.093Z,99.90
2022-07-29T12:29:03.139Z,99.90
2022-07-29T12:31:43.493Z,99.90
2022-07-29T12:34:12.650Z,99.90
2022-07-29T12:36:41.949Z,99.90
2022-07-29T12:39:10.249Z,99.90
2022-07-29T12:41:38.122Z,99.90
2022-07-29T12:44:06.229Z,99.90
2022-07-29T12:46:34.256Z,99.90
2022-07-29T12:49:04.089Z,99.90
2022-07-29T12:51:32.925Z,99.90
2022-07-29T12:54:06.663Z,99.90
2022-07-29T12:56:43.260Z,99.90
2022-07-29T12:59:16.385Z,99.90
2022-07-29T13:01:44.352Z,99.90
2022-07-29T13:04:12.244Z,99.90
2022-07-29T13:06:41.349Z,99.90
2022-07-29T13:09:12.666Z,99.90
2022-07-29T13:11:46.544Z,99.90
2022-07-29T13:14:17.121Z,99.90
2022-07-29T13:17:03.995Z,99.90
2022-07-29T13:19:35.880Z,99.90
2022-07-29T13:22:03.896Z,99.90
2022-07-29T13:24:33.155Z,99.90
2022-07-29T13:27:01.438Z,99.90
2022-07-29T13:29:34.096Z,99.90
2022-07-29T13:32:02.000Z,99.30
2022-07-29T13:34:29.875Z,99.90
2022-07-29T13:36:57.781Z,99.90
2022-07-29T13:39:26.031Z,99.90
2022-07-29T13:41:55.568Z,99.90
2022-07-29T13:44:25.695Z,99.90
2022-07-29T13:46:53.584Z,99.90
2022-07-29T13:49:21.579Z,99.90
2022-07-29T13:51:49.564Z,99.90
2022-07-29T13:54:17.497Z,99.90
2022-07-29T13:56:46.213Z,99.90
2022-07-29T13:59:15.568Z,99.90
2022-07-29T14:01:43.588Z,98.90
2022-07-29T14:04:13.630Z,92.90
2022-07-29T14:06:41.537Z,57.70
2022-07-29T14:09:09.668Z,50.90
2022-07-29T14:11:39.321Z,69.30
2022-07-29T14:14:07.459Z,49.90
2022-07-29T14:16:42.024Z,80.00
2022-07-29T14:19:11.045Z,60.80
2022-07-29T14:21:39.514Z,86.90
2022-07-29T14:24:16.203Z,74.30
2022-07-29T14:26:46.353Z,75.80
2022-07-29T14:29:14.543Z,85.50
2022-07-29T14:31:44.758Z,94.40
2022-07-29T14:34:12.735Z,94.90
2022-07-29T14:36:40.668Z,99.90
2022-07-29T14:39:08.601Z,99.90
2022-07-29T14:41:36.482Z,99.90
2022-07-29T14:44:04.748Z,99.90
2022-07-29T14:46:32.710Z,99.90
2022-07-29T14:49:02.041Z,99.90
2022-07-29T14:51:32.138Z,99.90
2022-07-29T14:54:00.632Z,99.90
2022-07-29T14:56:37.946Z,99.90
2022-07-29T14:59:14.955Z,99.90
2022-07-29T15:01:42.851Z,99.90
2022-07-29T15:04:12.181Z,99.90
2022-07-29T15:06:40.101Z,99.90
2022-07-29T15:09:07.994Z,99.90
2022-07-29T15:11:38.189Z,99.90
2022-07-29T15:14:06.773Z,99.90
2022-07-29T15:16:34.790Z,99.90
2022-07-29T15:19:03.380Z,99.90
2022-07-29T15:21:32.632Z,99.90
2022-07-29T15:24:00.489Z,99.90
2022-07-29T15:26:28.414Z,99.90
2022-07-29T15:28:57.373Z,99.90
2022-07-29T15:31:25.701Z,99.90
2022-07-29T15:33:58.094Z,99.90
2022-07-29T15:36:50.614Z,99.90
2022-07-29T15:39:17.349Z,99.90
2022-07-29T15:41:45.220Z,99.90
2022-07-29T15:44:13.099Z,99.90
2022-07-29T15:46:58.841Z,99.90
2022-07-29T15:49:48.725Z,99.90
2022-07-29T15:52:17.862Z,99.90
2022-07-29T15:54:47.074Z,99.90
2022-07-29T15:57:14.951Z,99.90
2022-07-29T15:59:42.826Z,99.90
2022-07-29T16:02:11.152Z,99.90
2022-07-29T16:04:39.054Z,99.90
2022-07-29T16:07:06.973Z,99.90
2022-07-29T16:09:34.829Z,99.90
2022-07-29T16:12:05.529Z,99.90
2022-07-29T16:14:43.077Z,99.90
2022-07-29T16:17:14.209Z,99.90
2022-07-29T16:19:43.112Z,99.90
2022-07-29T16:22:11.017Z,99.90
2022-07-29T16:24:39.056Z,99.90
2022-07-29T16:27:08.477Z,99.90
2022-07-29T16:29:37.406Z,99.90
2022-07-29T16:32:06.168Z,99.90
2022-07-29T16:34:34.310Z,99.90
2022-07-29T16:37:02.347Z,99.90
2022-07-29T16:39:30.478Z,99.90
2022-07-29T16:42:01.511Z,99.90
2022-07-29T16:44:32.384Z,99.90
2022-07-29T16:47:00.617Z,99.90
2022-07-29T16:49:29.157Z,99.90
2022-07-29T16:51:57.187Z,99.90
2022-07-29T16:54:25.156Z,99.90
2022-07-29T16:56:53.013Z,99.90
2022-07-29T16:59:20.991Z,99.90
2022-07-29T17:01:50.374Z,99.90
2022-07-29T17:04:18.413Z,99.90
2022-07-29T17:06:46.273Z,99.90
2022-07-29T17:09:15.099Z,99.90
2022-07-29T17:11:53.960Z,99.90
2022-07-29T17:14:24.106Z,99.90
2022-07-29T17:17:00.720Z,99.90
2022-07-29T17:19:30.133Z,99.90
2022-07-29T17:22:06.755Z,99.90
2022-07-29T17:24:38.411Z,99.90
2022-07-29T17:27:06.961Z,99.90
2022-07-29T17:29:35.943Z,99.90
2022-07-29T17:32:07.495Z,99.90
2022-07-29T17:34:37.338Z,99.90
2022-07-29T17:37:04.434Z,99.90
2022-07-29T17:39:32.814Z,99.90
2022-07-29T17:42:00.795Z,99.90
2022-07-29T17:44:28.794Z,99.90
2022-07-29T17:46:57.041Z,99.90
2022-07-29T17:49:26.924Z,99.90
2022-07-29T17:51:59.024Z,99.90
2022-07-29T17:54:28.589Z,99.90
2022-07-29T17:56:56.836Z,99.90
2022-07-29T17:59:25.049Z,99.90
2022-07-29T18:01:53.222Z,99.90
2022-07-29T18:04:23.321Z,99.90
2022-07-29T18:06:52.695Z,99.90
2022-07-29T18:09:20.615Z,99.90
2022-07-29T18:11:48.898Z,99.90
2022-07-29T18:14:16.978Z,99.90
2022-07-29T18:16:45.061Z,99.90
2022-07-29T18:19:13.063Z,99.90
2022-07-29T18:21:51.240Z,99.90
2022-07-29T18:24:25.388Z,99.90
2022-07-29T18:26:53.642Z,99.90
2022-07-29T18:29:21.580Z,99.90
2022-07-29T18:31:49.576Z,99.90
2022-07-29T18:34:17.801Z,99.90
2022-07-29T18:36:46.098Z,99.90
2022-07-29T18:39:20.649Z,99.90
2022-07-29T18:41:51.502Z,99.90
2022-07-29T18:44:21.699Z,99.90
2022-07-29T18:46:50.505Z,99.90
2022-07-29T18:49:18.705Z,99.90
2022-07-29T18:51:46.803Z,99.90
2022-07-29T18:54:14.689Z,99.90
2022-07-29T18:56:42.555Z,99.90
2022-07-29T18:59:11.752Z,99.90
2022-07-29T19:01:39.680Z,99.90
2022-07-29T19:04:08.187Z,99.90
2022-07-29T19:06:36.197Z,99.90
2022-07-29T19:09:04.109Z,99.90
2022-07-29T19:11:32.029Z,99.90
2022-07-29T19:13:59.942Z,99.90
2022-07-29T19:16:29.829Z,99.90
2022-07-29T19:18:57.730Z,99.90
2022-07-29T19:21:25.979Z,99.90
2022-07-29T19:24:01.860Z,99.90
2022-07-29T19:26:36.525Z,99.90
2022-07-29T19:29:04.599Z,99.90
2022-07-29T19:31:33.986Z,99.90
2022-07-29T19:34:01.927Z,99.90
2022-07-29T19:36:31.244Z,99.90
2022-07-29T19:38:59.982Z,99.90
2022-07-29T19:41:28.359Z,99.90
2022-07-29T19:43:56.246Z,99.90
2022-07-29T19:46:24.383Z,99.90
2022-07-29T19:48:53.995Z,99.90
2022-07-29T19:51:22.501Z,99.90
2022-07-29T19:53:50.388Z,99.90
2022-07-29T19:56:18.392Z,99.90
2022-07-29T19:58:47.279Z,99.90
2022-07-29T20:01:16.668Z,99.90
2022-07-29T20:03:44.726Z,99.90
2022-07-29T20:06:14.016Z,99.90
2022-07-29T20:08:41.872Z,99.90
2022-07-29T20:11:09.844Z,99.90
2022-07-29T20:13:37.670Z,99.90
2022-07-29T20:16:08.196Z,99.90
2022-07-29T20:18:36.234Z,99.90
2022-07-29T20:21:04.946Z,99.90
2022-07-29T20:23:34.318Z,99.90
2022-07-29T20:26:03.471Z,99.90
2022-07-29T20:28:33.031Z,99.90
2022-07-29T20:31:01.022Z,99.90
2022-07-29T20:33:28.936Z,99.90
2022-07-29T20:35:56.812Z,99.90
2022-07-29T20:38:24.795Z,99.90
2022-07-29T20:40:58.483Z,99.90
2022-07-29T20:43:27.043Z,99.90
2022-07-29T20:45:55.227Z,99.90
2022-07-29T20:48:23.084Z,99.90
2022-07-29T20:50:51.467Z,99.90
2022-07-29T20:53:20.417Z,99.90
2022-07-29T20:55:48.343Z,99.90
2022-07-29T20:58:17.861Z,99.90
2022-07-29T21:00:45.727Z,99.90
2022-07-29T21:03:13.646Z,99.90
2022-07-29T21:05:43.887Z,99.90
2022-07-29T21:08:11.985Z,99.90
2022-07-29T21:10:39.849Z,99.90
2022-07-29T21:13:07.689Z,99.90
2022-07-29T21:15:37.271Z,99.90
2022-07-29T21:18:09.194Z,99.90
2022-07-29T21:20:37.072Z,99.90
2022-07-29T21:23:05.255Z,99.90
2022-07-29T21:25:34.349Z,99.90
2022-07-29T21:28:19.814Z,99.90
2022-07-29T21:30:51.778Z,99.90
2022-07-29T21:33:19.620Z,99.90
2022-07-29T21:38:35.341Z,99.90
2022-07-29T21:41:03.412Z,99.90
2022-07-29T21:43:32.512Z,99.90
2022-07-29T21:46:01.767Z,99.90
2022-07-29T21:48:29.917Z,99.90
2022-07-29T21:50:57.928Z,99.90
2022-07-29T21:53:27.699Z,99.90
2022-07-29T21:55:55.721Z,99.90
2022-07-29T21:58:24.774Z,99.90
2022-07-29T22:00:53.814Z,99.90
2022-07-29T22:03:23.225Z,99.90
2022-07-29T22:05:51.087Z,99.90
2022-07-29T22:08:21.087Z,99.90
2022-07-29T22:10:48.944Z,99.90
2022-07-29T22:13:16.872Z,99.90
2022-07-29T22:15:47.191Z,99.90
2022-07-29T22:18:20.603Z,99.90
2022-07-29T22:20:50.669Z,99.90
2022-07-29T22:23:18.531Z,99.90
2022-07-29T22:25:46.404Z,99.90
2022-07-29T22:28:14.272Z,99.90
2022-07-29T22:30:42.203Z,99.90
2022-07-29T22:33:10.083Z,99.90
2022-07-29T22:35:48.531Z,99.90
2022-07-29T22:38:18.999Z,99.90
2022-07-29T22:40:48.665Z,99.90
2022-07-29T22:43:18.421Z,99.90
2022-07-29T22:45:46.358Z,99.90
2022-07-29T22:48:14.183Z,99.90
2022-07-29T22:50:42.212Z,99.90
2022-07-29T22:53:10.079Z,99.90
2022-07-29T22:55:39.404Z,99.90
2022-07-29T22:58:07.260Z,99.90
2022-07-29T23:00:35.706Z,99.90
2022-07-29T23:03:03.582Z,99.90
2022-07-29T23:05:32.617Z,99.90
2022-07-29T23:08:00.529Z,99.90
2022-07-29T23:10:28.620Z,99.90
2022-07-29T23:12:57.869Z,99.90
2022-07-29T23:15:25.722Z,99.90
2022-07-29T23:17:53.540Z,99.90
2022-07-29T23:20:21.357Z,99.90
2022-07-29T23:22:49.241Z,99.90
2022-07-29T23:25:17.113Z,99.90
2022-07-29T23:27:44.965Z,99.90
2022-07-29T23:30:14.613Z,99.90
2022-07-29T23:32:42.495Z,99.90
2022-07-29T23:35:10.869Z,99.90
2022-07-29T23:37:39.113Z,99.90
2022-07-29T23:40:13.625Z,99.90
2022-07-29T23:42:42.845Z,99.90
2022-07-29T23:45:11.371Z,99.90
2022-07-29T23:47:40.633Z,99.90
2022-07-29T23:50:11.946Z,99.90
2022-07-29T23:52:39.849Z,99.90
2022-07-29T23:55:36.766Z,99.90
2022-07-29T23:57:57.305Z,99.90
